Coosa Pines, Alabama
Current Conditions -  °F | °C
As of 7:55 AM on Monday 24 Nov 2014 (Local Time) from KSCD Reporting Station
Overcast Overcast  
Wind Chill: 65°   Ceiling: 1500
Heat Index: 65°   Visibility: 10mi
Dew Point: 62°   Wind: 9mph
Humidity: 92%   Direction: 240°WSW
Pressure: 29.8"   Gusts: NA
Location:  33.2952°N, 86.335°W
Report Text: KSCD 241355Z AUTO 24008KT 10SM BKN015 OVC022 18/17 A2980 RMK AO2 T01820169
Loading
Personal Weather Stations






























Interactive Weather Map New forecast layout! Learn more

10-Day Weather Forecast

Advertisements
Track Severe Weather on mobile